Data for 06/08/2005

Time Sea-Level Adjusted Pressure Absolute Pressure Temperature Relative Humidity Dew Point   
(mb) (inHg) (mb) (inHg) (C) (F) (%) (C) (F)
00:05 1013 29.91 842 24.86 5.3 41.5 87 3.3 38
00:10 1013 29.91 842 24.86 5.2 41.4 87 3.2 37.8
00:15 1013 29.91 842 24.86 5.2 41.3 87 3.2 37.7
00:20 1013 29.91 842 24.86 5.1 41.2 86 3 37.4
00:25 1013 29.91 842 24.86 5.1 41.1 86 2.9 37.1
00:30 1013 29.91 842 24.86 5 41.1 85 2.7 36.9
00:35 1013 29.91 842 24.86 5 41.1 85 2.7 36.8
00:40 1013 29.91 842 24.86 5 41 85 2.7 36.8
00:45 1013 29.91 842 24.86 4.9 40.9 85 2.6 36.7
00:50 1013 29.91 842 24.86 4.8 40.7 86 2.6 36.7
00:55 1013 29.91 842 24.86 4.8 40.6 86 2.7 36.8
01:00 1013 29.91 842 24.86 4.8 40.6 86 2.6 36.7
01:05 1013 29.91 842 24.86 4.8 40.6 86 2.7 36.8
01:10 1013 29.91 842 24.86 4.8 40.6 86 2.6 36.7
01:15 1013 29.91 842 24.86 4.8 40.7 86 2.7 36.8
01:20 1013 29.91 842 24.86 4.8 40.6 86 2.7 36.8
01:25 1013 29.91 842 24.86 4.8 40.7 86 2.7 36.8
01:30 1013 29.91 842 24.86 4.9 40.8 86 2.7 36.9
01:35 1013 29.91 842 24.86 4.9 40.9 86 2.7 36.9
01:40 1013 29.91 842 24.86 5 41 87 3 37.4
01:45 1013 29.91 842 24.86 5.1 41.2 85 2.8 37
01:50 1013 29.91 842 24.86 5.1 41.2 85 2.8 37.1
01:55 1013 29.91 842 24.86 5.2 41.3 86 3 37.3
02:00 1013 29.91 842 24.86 5.2 41.4 86 3.1 37.6
02:05 1013 29.91 842 24.86 4.9 40.8 87 2.9 37.2
02:10 1013 29.91 842 24.86 4.9 40.7 87 2.9 37.2
02:15 1013 29.91 842 24.86 4.8 40.7 87 2.9 37.2
02:20 1013 29.91 842 24.86 4.9 40.8 88 3 37.5
02:25 1013 29.91 842 24.86 4.8 40.6 87 2.8 37
02:30 1013 29.91 842 24.86 4.8 40.7 86 2.7 36.9
02:35 1013 29.91 842 24.86 5.1 41.2 85 2.8 37
02:40 1013 29.91 842 24.86 5.2 41.4 83 2.7 36.8
02:45 1013 29.91 842 24.86 5.3 41.5 86 3.1 37.6
02:50 1013 29.91 842 24.86 5.1 41.2 89 3.4 38.1
02:55 1013 29.91 842 24.86 5 41.1 89 3.4 38.1
03:00 1013 29.91 842 24.86 5 40.9 90 3.5 38.3
03:05 1013 29.91 842 24.86 5 40.9 90 3.5 38.3
03:10 1013 29.91 842 24.86 5 40.9 91 3.6 38.4
03:15 1013 29.91 842 24.86 5 41.1 90 3.6 38.4
03:20 1013 29.91 842 24.86 5.1 41.1 90 3.6 38.5
03:25 1013 29.91 842 24.86 5 41.1 90 3.6 38.4
03:30 1013 29.91 842 24.86 5 41 90 3.5 38.3
03:35 1013 29.91 842 24.86 5.1 41.2 91 3.7 38.7
03:40 1013 29.91 842 24.86 5.2 41.3 87 3.2 37.7
03:45 1013 29.91 842 24.86 5.2 41.3 87 3.2 37.7
03:50 1013 29.91 842 24.86 5.2 41.4 88 3.3 38
03:55 1013 29.91 842 24.86 5.2 41.4 89 3.6 38.5
04:00 1013 29.91 842 24.86 5.1 41.2 91 3.7 38.7
04:05 1013 29.91 842 24.86 4.9 40.8 87 2.9 37.3
04:10 1013 29.91 842 24.86 4.9 40.7 87 2.8 37.1
04:15 1013 29.91 842 24.86 4.9 40.8 87 3 37.4
04:20 1013 29.91 842 24.86 4.8 40.7 88 3.1 37.6
04:25 1013 29.91 842 24.86 4.8 40.6 90 3.3 37.9
04:30 1013 29.91 842 24.86 4.8 40.6 91 3.4 38.2
04:35 1013 29.91 842 24.86 4.8 40.7 91 3.6 38.4
04:40 1013 29.91 842 24.86 4.9 40.8 91 3.5 38.3
04:45 1013 29.91 842 24.86 5 40.9 89 3.2 37.8
04:50 1013 29.91 842 24.86 5.1 41.2 88 3.3 37.9
04:55 1013 29.91 842 24.86 5.1 41.2 86 3 37.5
05:00 1013 29.91 842 24.86 5.1 41.2 84 2.7 36.9
05:05 1013 29.91 842 24.86 5.1 41.2 87 3.1 37.6
05:10 1013 29.91 842 24.86 5 41 88 3.2 37.8
05:15 1013 29.91 842 24.86 5 41 86 2.9 37.2
05:20 1013 29.91 842 24.86 4.9 40.9 87 2.9 37.3
05:25 1013 29.91 842 24.86 5 41 88 3.1 37.6
05:30 1013 29.91 842 24.86 5 41 87 3 37.4
05:35 1013 29.91 842 24.86 4.9 40.9 88 3.1 37.5
05:40 1013 29.91 842 24.86 4.9 40.9 88 3 37.5
05:45 1013 29.91 842 24.86 4.9 40.9 89 3.3 37.9
05:50 1013 29.91 842 24.86 4.8 40.7 90 3.3 38
05:55 1013 29.91 842 24.86 4.7 40.5 89 3.1 37.7
06:00 1013 29.91 842 24.86 4.7 40.5 90 3.2 37.8
06:05 1013 29.91 842 24.86 4.7 40.4 90 3.1 37.7
06:10 1013 29.91 842 24.86 4.7 40.5 90 3.3 37.9
06:15 1013 29.91 842 24.86 4.8 40.7 89 3.2 37.8
06:20 1013 29.91 842 24.86 4.9 40.7 89 3.3 37.9
06:25 1013 29.91 842 24.86 5 40.9 89 3.3 38
06:30 1013 29.91 842 24.86 5 41 87 3 37.4
06:35 1013 29.91 842 24.86 5.1 41.2 86 3 37.4
06:40 1013 29.91 842 24.86 5.1 41.2 87 3.1 37.7
06:45 1013 29.91 842 24.86 5.3 41.5 89 3.6 38.4
06:50 1013 29.91 842 24.86 5.3 41.5 88 3.4 38.1
06:55 1013 29.91 842 24.86 5.4 41.6 87 3.3 37.9
07:00 1013 29.91 842 24.86 5.6 42 81 2.6 36.6
07:05 1013 29.91 842 24.86 5.8 42.5 80 2.6 36.8
07:10 1013 29.91 842 24.86 5.9 42.6 82 3 37.4
07:15 1013 29.91 842 24.86 5.7 42.3 82 2.9 37.3
07:20 1013 29.91 842 24.86 5.9 42.6 79 2.5 36.4
07:25 1013 29.91 842 24.86 6.3 43.3 76 2.4 36.3
07:30 1013 29.91 842 24.86 6.8 44.2 76 2.9 37.1
07:35 1013 29.91 842 24.86 7 44.6 75 2.9 37.1
07:40 1013 29.91 842 24.86 7.1 44.8 74 2.8 37
07:45 1013 29.91 842 24.86 7.1 44.8 73 2.7 36.8
07:50 1013 29.91 842 24.86 7.1 44.7 74 2.7 36.9
07:55 1013 29.91 842 24.86 7 44.7 75 2.9 37.2
08:00 1013 29.91 842 24.86 7.2 44.9 76 3.1 37.6
08:05 1013 29.91 842 24.86 7.3 45.2 74 3 37.5
08:10 1013 29.91 842 24.86 7.5 45.4 74 3.2 37.7
08:15 1013 29.91 842 24.86 7.6 45.6 74 3.2 37.8
08:20 1013 29.91 842 24.86 7.8 46 72 3 37.5
08:25 1013 29.91 843 24.89 7.8 46 72 3.1 37.6
08:30 1013 29.91 843 24.89 7.5 45.5 72 2.8 37
08:35 1013 29.91 843 24.89 7.8 46 70 2.6 36.7
08:40 1013 29.91 843 24.89 7.9 46.2 70 2.7 36.8
08:45 1013 29.91 843 24.89 7.9 46.3 68 2.4 36.3
08:50 1014 29.94 843 24.89 7.8 46 70 2.7 36.8
08:55 1014 29.94 843 24.89 7.6 45.6 70 2.5 36.6
09:00 1014 29.94 843 24.89 7.6 45.6 70 2.5 36.4
09:05 1014 29.94 843 24.89 7.4 45.3 73 2.9 37.2
09:10 1014 29.94 843 24.89 7.4 45.2 72 2.6 36.7
09:15 1014 29.94 843 24.89 7.9 46.2 68 2.4 36.3
09:20 1014 29.94 843 24.89 8.2 46.7 66 2.2 36
09:25 1014 29.94 843 24.89 7.9 46.2 69 2.5 36.5
09:30 1014 29.94 843 24.89 7.9 46.2 68 2.3 36.2
09:35 1014 29.94 843 24.89 7.9 46.3 66 2 35.5
09:40 1014 29.94 843 24.89 8.3 46.9 63 1.7 35.1
09:45 1014 29.94 843 24.89 8.7 47.6 62 1.7 35.1
09:50 1014 29.94 843 24.89 9 48.1 61 1.8 35.3
09:55 1014 29.94 843 24.89 9 48.1 62 2.1 35.7
10:00 1014 29.94 843 24.89 9.2 48.6 59 1.7 35
10:05 1014 29.94 843 24.89 9.1 48.3 60 1.8 35.2
10:10 1014 29.94 843 24.89 9.1 48.4 61 2.1 35.8
10:15 1014 29.94 843 24.89 9.1 48.3 58 1.3 34.3
10:20 1014 29.94 843 24.89 9.5 49.1 57 1.5 34.8
10:25 1014 29.94 843 24.89 9.6 49.3 54 0.7 33.3
10:30 1014 29.94 843 24.89 9.4 49 54 0.6 33.1
10:35 1014 29.94 843 24.89 9.3 48.7 54 0.4 32.8
10:40 1014 29.94 843 24.89 9.3 48.8 53 0.3 32.5
10:45 1014 29.94 843 24.89 9.3 48.8 52 0.1 32.2
10:50 1014 29.94 843 24.89 9.3 48.8 54 0.5 32.9
10:55 1014 29.94 843 24.89 9.4 49 50 -0.3 31.4
11:00 1014 29.94 843 24.89 9.5 49.1 50 -0.3 31.5
11:05 1014 29.94 843 24.89 9.7 49.5 51 0.2 32.4
11:10 1014 29.94 843 24.89 9.7 49.5 52 0.4 32.8
11:15 1014 29.94 843 24.89 9.7 49.4 52 0.2 32.4
11:20 1014 29.94 843 24.89 9.9 49.8 52 0.4 32.8
11:25 1014 29.94 843 24.89 10.2 50.4 51 0.7 33.2
11:30 1014 29.94 843 24.89 10.5 51 51 0.9 33.6
11:35 1014 29.94 843 24.89 10.7 51.2 50 0.6 33.2
11:40 1014 29.94 843 24.89 10.2 50.3 51 0.6 33
11:45 1014 29.94 843 24.89 10.2 50.4 50 0.4 32.7
11:50 1014 29.94 843 24.89 9.9 49.7 53 0.8 33.5
11:55 1014 29.94 843 24.89 9.4 48.8 53 0.2 32.4
12:00 1014 29.94 843 24.89 9.9 49.7 52 0.6 33
12:05 1014 29.94 843 24.89 9.5 49.1 53 0.4 32.7
12:10 1014 29.94 843 24.89 10.1 50.2 49 -0 32
12:15 1014 29.94 843 24.89 10.1 50.1 47 -0.6 30.9
12:20 1014 29.94 843 24.89 10.6 51 47 -0.1 31.9
12:25 1014 29.94 843 24.89 11 51.8 54 2.1 35.7
12:30 1014 29.94 843 24.89 9.4 48.9 61 2.3 36.1
12:35 1014 29.94 843 24.89 9.2 48.5 59 1.5 34.8
12:40 1014 29.94 843 24.89 9.3 48.7 60 1.8 35.3
12:45 1014 29.94 843 24.89 8.9 48 59 1.2 34.2
12:50 1014 29.94 843 24.89 8.6 47.5 58 0.9 33.5
12:55 1014 29.94 843 24.89 9 48.3 58 1.1 34
13:00 1014 29.94 843 24.89 9.7 49.5 54 0.9 33.7
13:05 1014 29.94 843 24.89 10.3 50.5 54 1.4 34.6
13:10 1014 29.94 843 24.89 10.6 51.1 54 1.7 35
13:15 1014 29.94 843 24.89 10.3 50.5 55 1.7 35
13:20 1014 29.94 843 24.89 9.6 49.2 64 3.1 37.6
13:25 1014 29.94 843 24.89 9.5 49 60 2.1 35.9
13:30 1014 29.94 843 24.89 9.6 49.2 61 2.4 36.4
13:35 1014 29.94 843 24.89 9.6 49.2 58 1.8 35.3
13:40 1014 29.94 843 24.89 9.4 48.9 57 1.5 34.6
13:45 1014 29.94 844 24.92 9.3 48.7 63 2.6 36.6
13:50 1014 29.94 844 24.92 8.8 47.8 69 3.4 38.1
13:55 1014 29.94 844 24.92 8.3 47 68 2.7 36.9
14:00 1014 29.94 844 24.92 7.8 46.1 70 2.8 37
14:05 1014 29.94 844 24.92 8.5 47.3 65 2.3 36.2
14:10 1014 29.94 844 24.92 8.8 47.8 61 1.8 35.2
14:15 1014 29.94 844 24.92 9.1 48.3 60 1.7 35.1
14:20 1014 29.94 844 24.92 9.2 48.6 60 2 35.6
14:25 1014 29.94 844 24.92 9.5 49.1 59 1.8 35.3
14:30 1014 29.94 844 24.92 9.7 49.4 59 2.1 35.8
14:35 1014 29.94 844 24.92 9.6 49.3 58 1.7 35
14:40 1015 29.97 844 24.92 9.8 49.7 48 -0.5 31
14:45 1014 29.94 844 24.92 10.4 50.6 48 -0.1 31.9
14:50 1014 29.94 844 24.92 10.4 50.7 50 0.3 32.6
14:55 1014 29.94 844 24.92 10.2 50.3 50 0.1 32.3
15:00 1014 29.94 844 24.92 10.3 50.5 49 -0 32
15:05 1014 29.94 844 24.92 10.7 51.2 47 -0.3 31.5
15:10 1014 29.94 844 24.92 10.7 51.2 47 -0 32
15:15 1014 29.94 844 24.92 10.7 51.2 48 0.2 32.3
15:20 1014 29.94 844 24.92 10.7 51.3 48 0.2 32.4
15:25 1014 29.94 844 24.92 11.2 52.1 48 0.7 33.3
15:30 1014 29.94 844 24.92 11.1 51.9 48 0.5 32.8
15:35 1014 29.94 844 24.92 11.2 52.1 54 2.2 36
15:40 1014 29.94 844 24.92 9.8 49.6 56 1.4 34.6
15:45 1014 29.94 844 24.92 9.7 49.5 55 1.2 34.2
15:50 1014 29.94 844 24.92 10.4 50.7 54 1.6 34.8
15:55 1014 29.94 844 24.92 10.4 50.7 50 0.5 32.9
16:00 1014 29.94 843 24.89 11.1 52.1 48 0.7 33.3
16:05 1014 29.94 843 24.89 11.4 52.5 48 0.7 33.3
16:10 1014 29.94 843 24.89 11.4 52.6 50 1.4 34.5
16:15 1014 29.94 843 24.89 11.2 52.2 52 1.9 35.4
16:20 1014 29.94 843 24.89 10.5 50.9 54 1.6 34.9
16:25 1014 29.94 843 24.89 10.3 50.6 54 1.5 34.8
16:30 1014 29.94 843 24.89 10.9 51.7 52 1.5 34.7
16:35 1014 29.94 843 24.89 11.5 52.7 51 1.8 35.2
16:40 1014 29.94 843 24.89 11.4 52.5 54 2.4 36.2
16:45 1014 29.94 843 24.89 11.2 52.2 54 2.2 35.9
16:50 1014 29.94 843 24.89 10.9 51.6 55 2.2 36
16:55 1014 29.94 843 24.89 10.7 51.2 56 2.4 36.3
17:00 1014 29.94 843 24.89 10.9 51.7 55 2.4 36.4
17:05 1014 29.94 843 24.89 11 51.8 55 2.4 36.3
17:10 1014 29.94 843 24.89 10.8 51.4 56 2.5 36.4
17:15 1014 29.94 843 24.89 9.7 49.4 66 3.7 38.7
17:20 1014 29.94 843 24.89 8.1 46.6 70 3.1 37.6
17:25 1014 29.94 843 24.89 7.6 45.6 73 3 37.3
17:30 1014 29.94 843 24.89 7.5 45.4 72 2.8 37
17:35 1014 29.94 844 24.92 7.6 45.7 77 3.9 39.1
17:40 1014 29.94 844 24.92 7.7 45.9 78 4.1 39.4
17:45 1014 29.94 844 24.92 8.1 46.6 78 4.6 40.3
17:50 1014 29.94 843 24.89 8.4 47.1 73 3.9 39
17:55 1014 29.94 843 24.89 8.5 47.3 73 4 39.2
18:00 1014 29.94 843 24.89 8.8 47.8 71 3.8 38.8
18:05 1014 29.94 843 24.89 9 48.2 70 3.9 38.9
18:10 1014 29.94 843 24.89 9.7 49.4 65 3.4 38.1
18:15 1014 29.94 843 24.89 9.9 49.7 64 3.4 38.2
18:20 1014 29.94 843 24.89 9.4 49 65 3.3 37.9
18:25 1014 29.94 843 24.89 9 48.1 65 2.7 36.8
18:30 1014 29.94 843 24.89 8.7 47.7 67 2.9 37.2
18:35 1014 29.94 844 24.92 8.8 47.9 67 3.1 37.6
18:40 1014 29.94 844 24.92 8.8 47.9 67 3 37.5
18:45 1014 29.94 844 24.92 8.8 47.9 68 3.2 37.8
18:50 1014 29.94 844 24.92 9 48.3 66 3.1 37.5
18:55 1014 29.94 844 24.92 8.9 48.1 67 3.2 37.8
19:00 1014 29.94 844 24.92 8.9 48 66 2.9 37.2
19:05 1014 29.94 844 24.92 9.1 48.3 64 2.7 36.8
19:10 1014 29.94 844 24.92 9.3 48.7 63 2.6 36.7
19:15 1014 29.94 844 24.92 9.2 48.6 64 2.9 37.2
19:20 1014 29.94 844 24.92 9.5 49.1 63 2.9 37.2
19:25 1014 29.94 844 24.92 9.2 48.6 66 3.2 37.8
19:30 1014 29.94 844 24.92 9 48.1 67 3.2 37.7
19:35 1014 29.94 844 24.92 8.9 47.9 66 2.9 37.3
19:40 1014 29.94 844 24.92 8.7 47.6 67 2.9 37.2
19:45 1014 29.94 844 24.92 8.7 47.6 66 2.6 36.7
19:50 1014 29.94 844 24.92 9 48.2 64 2.7 36.8
19:55 1014 29.94 844 24.92 9 48.3 65 2.8 37
20:00 1015 29.97 844 24.92 9 48.3 64 2.7 36.8
20:05 1015 29.97 844 24.92 8.9 48 63 2.4 36.3
20:10 1015 29.97 844 24.92 8.7 47.6 63 2.2 35.9
20:15 1015 29.97 844 24.92 8.7 47.7 64 2.3 36.1
20:20 1014 29.94 844 24.92 8.6 47.5 68 3 37.4
20:25 1015 29.97 844 24.92 8.6 47.4 68 3 37.4
20:30 1015 29.97 844 24.92 8.3 47 70 3.1 37.7
20:35 1015 29.97 844 24.92 8 46.4 73 3.4 38.2
20:40 1015 29.97 844 24.92 7.8 46.1 74 3.4 38.2
20:45 1015 29.97 844 24.92 7.8 46.1 75 3.6 38.5
20:50 1015 29.97 844 24.92 7.9 46.2 74 3.5 38.4
20:55 1015 29.97 844 24.92 7.8 46.1 74 3.6 38.5
21:00 1015 29.97 844 24.92 7.8 46 75 3.6 38.6
21:05 1015 29.97 844 24.92 7.6 45.8 76 3.6 38.5
21:10 1015 29.97 844 24.92 7.5 45.5 76 3.5 38.3
21:15 1015 29.97 844 24.92 7.4 45.3 76 3.5 38.3
21:20 1015 29.97 844 24.92 7.2 45 78 3.6 38.4
21:25 1015 29.97 844 24.92 7.1 44.7 78 3.6 38.5
21:30 1015 29.97 844 24.92 7 44.7 79 3.6 38.5
21:35 1015 29.97 844 24.92 7.1 44.7 79 3.7 38.6
21:40 1015 29.97 844 24.92 7.1 44.7 80 3.8 38.8
21:45 1015 29.97 844 24.92 7.1 44.7 80 3.8 38.9
21:50 1015 29.97 844 24.92 7 44.6 82 4.1 39.3
21:55 1015 29.97 845 24.95 6.6 43.9 84 4.1 39.4
22:00 1015 29.97 845 24.95 6.6 44 81 3.7 38.6
22:05 1015 29.97 845 24.95 6.9 44.4 80 3.6 38.6
22:10 1015 29.97 845 24.95 7 44.5 78 3.3 38
22:15 1015 29.97 845 24.95 6.9 44.4 76 3 37.3
22:20 1015 29.97 845 24.95 6.8 44.2 74 2.4 36.3
22:25 1015 29.97 845 24.95 6.7 44 74 2.3 36.1
22:30 1015 29.97 845 24.95 6.6 43.8 75 2.5 36.4
22:35 1015 29.97 845 24.95 6.7 44 76 2.7 36.8
22:40 1015 29.97 845 24.95 6.6 43.9 76 2.8 37
22:45 1015 29.97 845 24.95 6.5 43.7 78 3 37.3
22:50 1015 29.97 845 24.95 6.6 43.9 78 3.1 37.7
22:55 1015 29.97 845 24.95 6.8 44.2 79 3.4 38
23:00 1015 29.97 845 24.95 6.8 44.2 78 3.2 37.7
23:05 1015 29.97 845 24.95 6.8 44.3 77 3 37.4
23:10 1015 29.97 845 24.95 6.8 44.2 76 2.9 37.2
23:15 1015 29.97 844 24.92 6.7 44.1 75 2.6 36.7
23:20 1015 29.97 844 24.92 6.7 44.1 76 2.8 37
23:25 1015 29.97 844 24.92 6.6 43.9 76 2.7 36.8
23:30 1015 29.97 844 24.92 6.5 43.8 78 2.9 37.3
23:35 1015 29.97 844 24.92 6.4 43.4 76 2.5 36.5
23:40 1015 29.97 844 24.92 6.5 43.6 76 2.6 36.7
23:45 1015 29.97 844 24.92 6.5 43.7 79 3.1 37.5
23:50 1015 29.97 844 24.92 6.4 43.5 82 3.5 38.3
23:55 1015 29.97 844 24.92 6.1 43 82 3.3 38
24:00 1015 29.97 844 24.92 6 42.7 83 3.3 37.9